sensor_id;sensor_type;location;lat;lon;timestamp;P1;durP1;ratioP1;P2;durP2;ratioP2
51292;SDS011;37377;45.186;9.778;2022-12-29T00:00:55;133.98;;;67.82;;
51292;SDS011;37377;45.186;9.778;2022-12-29T00:03:26;140.85;;;68.22;;
51292;SDS011;37377;45.186;9.778;2022-12-29T00:05:59;137.63;;;68.32;;
51292;SDS011;37377;45.186;9.778;2022-12-29T00:08:26;136.38;;;68.13;;
51292;SDS011;37377;45.186;9.778;2022-12-29T00:13:34;140.95;;;70.15;;
51292;SDS011;37377;45.186;9.778;2022-12-29T00:16:19;149.63;;;72.35;;
51292;SDS011;37377;45.186;9.778;2022-12-29T00:18:46;146.50;;;70.28;;
51292;SDS011;37377;45.186;9.778;2022-12-29T00:21:13;147.57;;;72.82;;
51292;SDS011;37377;45.186;9.778;2022-12-29T00:24:03;132.82;;;66.88;;
51292;SDS011;37377;45.186;9.778;2022-12-29T00:30:08;138.05;;;68.68;;
51292;SDS011;37377;45.186;9.778;2022-12-29T00:32:53;140.32;;;67.25;;
51292;SDS011;37377;45.186;9.778;2022-12-29T00:35:42;134.00;;;68.38;;
51292;SDS011;37377;45.186;9.778;2022-12-29T00:38:11;157.85;;;74.88;;
51292;SDS011;37377;45.186;9.778;2022-12-29T00:40:58;141.05;;;70.88;;
51292;SDS011;37377;45.186;9.778;2022-12-29T00:43:43;140.07;;;69.88;;
51292;SDS011;37377;45.186;9.778;2022-12-29T00:46:33;139.93;;;71.03;;
51292;SDS011;37377;45.186;9.778;2022-12-29T00:49:02;131.45;;;66.95;;
51292;SDS011;37377;45.186;9.778;2022-12-29T00:51:51;146.90;;;68.90;;
51292;SDS011;37377;45.186;9.778;2022-12-29T00:54:18;141.82;;;67.80;;
51292;SDS011;37377;45.186;9.778;2022-12-29T00:56:46;132.68;;;69.57;;
51292;SDS011;37377;45.186;9.778;2022-12-29T00:59:16;140.93;;;66.57;;
51292;SDS011;37377;45.186;9.778;2022-12-29T01:01:44;134.63;;;69.57;;
51292;SDS011;37377;45.186;9.778;2022-12-29T01:04:12;148.05;;;72.65;;
51292;SDS011;37377;45.186;9.778;2022-12-29T01:06:40;145.82;;;71.32;;
51292;SDS011;37377;45.186;9.778;2022-12-29T01:09:07;148.93;;;71.10;;
51292;SDS011;37377;45.186;9.778;2022-12-29T01:11:53;154.10;;;73.40;;
51292;SDS011;37377;45.186;9.778;2022-12-29T01:14:21;145.18;;;69.70;;
51292;SDS011;37377;45.186;9.778;2022-12-29T01:16:50;148.20;;;71.13;;
51292;SDS011;37377;45.186;9.778;2022-12-29T01:19:17;143.85;;;69.90;;
51292;SDS011;37377;45.186;9.778;2022-12-29T01:21:45;139.73;;;71.30;;
51292;SDS011;37377;45.186;9.778;2022-12-29T01:24:12;144.80;;;71.72;;
51292;SDS011;37377;45.186;9.778;2022-12-29T01:26:39;147.25;;;70.15;;
51292;SDS011;37377;45.186;9.778;2022-12-29T01:29:06;146.30;;;71.60;;
51292;SDS011;37377;45.186;9.778;2022-12-29T01:31:33;150.02;;;74.47;;
51292;SDS011;37377;45.186;9.778;2022-12-29T01:34:00;148.52;;;72.25;;
51292;SDS011;37377;45.186;9.778;2022-12-29T01:36:27;151.23;;;72.97;;
51292;SDS011;37377;45.186;9.778;2022-12-29T01:38:54;151.73;;;71.03;;
51292;SDS011;37377;45.186;9.778;2022-12-29T01:41:22;146.65;;;72.80;;
51292;SDS011;37377;45.186;9.778;2022-12-29T01:43:50;147.43;;;73.78;;
51292;SDS011;37377;45.186;9.778;2022-12-29T01:46:41;146.20;;;71.78;;
51292;SDS011;37377;45.186;9.778;2022-12-29T01:49:13;159.73;;;74.22;;
51292;SDS011;37377;45.186;9.778;2022-12-29T01:51:45;142.07;;;73.30;;
51292;SDS011;37377;45.186;9.778;2022-12-29T01:56:53;142.52;;;72.43;;
51292;SDS011;37377;45.186;9.778;2022-12-29T01:59:22;148.80;;;72.00;;
51292;SDS011;37377;45.186;9.778;2022-12-29T02:01:52;148.38;;;73.00;;
51292;SDS011;37377;45.186;9.778;2022-12-29T02:04:19;148.85;;;74.47;;
51292;SDS011;37377;45.186;9.778;2022-12-29T02:09:19;153.75;;;76.28;;
51292;SDS011;37377;45.186;9.778;2022-12-29T02:11:49;145.75;;;73.03;;
51292;SDS011;37377;45.186;9.778;2022-12-29T02:14:17;149.38;;;74.47;;
51292;SDS011;37377;45.186;9.778;2022-12-29T02:17:08;141.02;;;70.75;;
51292;SDS011;37377;45.186;9.778;2022-12-29T02:28:07;154.60;;;73.72;;
51292;SDS011;37377;45.186;9.778;2022-12-29T02:33:37;152.63;;;72.05;;
51292;SDS011;37377;45.186;9.778;2022-12-29T02:41:23;154.48;;;76.05;;
51292;SDS011;37377;45.186;9.778;2022-12-29T02:44:06;155.20;;;75.35;;
51292;SDS011;37377;45.186;9.778;2022-12-29T02:46:35;143.70;;;73.45;;
51292;SDS011;37377;45.186;9.778;2022-12-29T02:52:02;141.10;;;73.82;;
51292;SDS011;37377;45.186;9.778;2022-12-29T02:54:32;147.77;;;71.38;;
51292;SDS011;37377;45.186;9.778;2022-12-29T02:57:11;141.15;;;71.32;;
51292;SDS011;37377;45.186;9.778;2022-12-29T02:59:39;140.20;;;71.15;;
51292;SDS011;37377;45.186;9.778;2022-12-29T03:02:19;138.35;;;69.53;;
51292;SDS011;37377;45.186;9.778;2022-12-29T03:10:08;134.73;;;67.82;;
51292;SDS011;37377;45.186;9.778;2022-12-29T03:13:43;127.85;;;67.70;;
51292;SDS011;37377;45.186;9.778;2022-12-29T03:18:49;136.88;;;70.13;;
51292;SDS011;37377;45.186;9.778;2022-12-29T03:23:46;133.88;;;67.78;;
51292;SDS011;37377;45.186;9.778;2022-12-29T03:26:24;134.45;;;67.00;;
51292;SDS011;37377;45.186;9.778;2022-12-29T03:28:52;133.50;;;68.97;;
51292;SDS011;37377;45.186;9.778;2022-12-29T03:31:23;132.73;;;68.80;;
51292;SDS011;37377;45.186;9.778;2022-12-29T03:33:52;130.40;;;68.15;;
51292;SDS011;37377;45.186;9.778;2022-12-29T03:36:38;132.00;;;67.68;;
51292;SDS011;37377;45.186;9.778;2022-12-29T03:39:10;130.18;;;69.03;;
51292;SDS011;37377;45.186;9.778;2022-12-29T03:41:40;119.95;;;66.47;;
51292;SDS011;37377;45.186;9.778;2022-12-29T03:44:10;131.27;;;68.45;;
51292;SDS011;37377;45.186;9.778;2022-12-29T03:46:38;120.07;;;64.47;;
51292;SDS011;37377;45.186;9.778;2022-12-29T03:49:06;130.10;;;69.22;;
51292;SDS011;37377;45.186;9.778;2022-12-29T03:51:33;126.22;;;67.40;;
51292;SDS011;37377;45.186;9.778;2022-12-29T03:54:01;135.25;;;68.72;;
51292;SDS011;37377;45.186;9.778;2022-12-29T03:56:28;125.93;;;66.18;;
51292;SDS011;37377;45.186;9.778;2022-12-29T03:59:01;131.00;;;65.88;;
51292;SDS011;37377;45.186;9.778;2022-12-29T04:01:34;133.65;;;67.90;;
51292;SDS011;37377;45.186;9.778;2022-12-29T04:04:01;124.25;;;67.00;;
51292;SDS011;37377;45.186;9.778;2022-12-29T04:06:28;129.10;;;69.75;;
51292;SDS011;37377;45.186;9.778;2022-12-29T04:09:06;130.45;;;67.53;;
51292;SDS011;37377;45.186;9.778;2022-12-29T04:11:38;127.68;;;68.03;;
51292;SDS011;37377;45.186;9.778;2022-12-29T04:14:05;126.57;;;68.15;;
51292;SDS011;37377;45.186;9.778;2022-12-29T04:16:33;132.32;;;70.43;;
51292;SDS011;37377;45.186;9.778;2022-12-29T04:19:04;130.40;;;68.68;;
51292;SDS011;37377;45.186;9.778;2022-12-29T04:21:32;127.00;;;68.55;;
51292;SDS011;37377;45.186;9.778;2022-12-29T04:23:59;126.75;;;65.97;;
51292;SDS011;37377;45.186;9.778;2022-12-29T04:26:26;122.03;;;65.72;;
51292;SDS011;37377;45.186;9.778;2022-12-29T04:29:16;134.15;;;68.82;;
51292;SDS011;37377;45.186;9.778;2022-12-29T04:32:04;132.73;;;68.45;;
51292;SDS011;37377;45.186;9.778;2022-12-29T04:34:35;124.80;;;66.45;;
51292;SDS011;37377;45.186;9.778;2022-12-29T04:37:05;128.55;;;67.10;;
51292;SDS011;37377;45.186;9.778;2022-12-29T04:39:33;127.57;;;67.68;;
51292;SDS011;37377;45.186;9.778;2022-12-29T04:42:02;130.45;;;67.25;;
51292;SDS011;37377;45.186;9.778;2022-12-29T04:44:29;123.18;;;65.53;;
51292;SDS011;37377;45.186;9.778;2022-12-29T04:47:10;131.30;;;67.55;;
51292;SDS011;37377;45.186;9.778;2022-12-29T04:49:44;130.18;;;69.90;;
51292;SDS011;37377;45.186;9.778;2022-12-29T04:52:29;121.15;;;65.90;;
51292;SDS011;37377;45.186;9.778;2022-12-29T04:54:56;118.07;;;65.20;;
51292;SDS011;37377;45.186;9.778;2022-12-29T04:57:24;130.40;;;68.35;;
51292;SDS011;37377;45.186;9.778;2022-12-29T04:59:57;127.53;;;70.28;;
51292;SDS011;37377;45.186;9.778;2022-12-29T05:02:35;137.15;;;70.63;;
51292;SDS011;37377;45.186;9.778;2022-12-29T05:05:03;126.13;;;69.32;;
51292;SDS011;37377;45.186;9.778;2022-12-29T05:07:32;131.95;;;70.32;;
51292;SDS011;37377;45.186;9.778;2022-12-29T05:10:00;128.00;;;70.10;;
51292;SDS011;37377;45.186;9.778;2022-12-29T05:12:30;127.35;;;69.63;;
51292;SDS011;37377;45.186;9.778;2022-12-29T05:14:59;129.75;;;69.50;;
51292;SDS011;37377;45.186;9.778;2022-12-29T05:17:26;133.27;;;69.10;;
51292;SDS011;37377;45.186;9.778;2022-12-29T05:19:53;124.63;;;68.32;;
51292;SDS011;37377;45.186;9.778;2022-12-29T05:22:20;132.32;;;68.85;;
51292;SDS011;37377;45.186;9.778;2022-12-29T05:24:48;130.00;;;68.43;;
51292;SDS011;37377;45.186;9.778;2022-12-29T05:27:15;130.13;;;69.03;;
51292;SDS011;37377;45.186;9.778;2022-12-29T05:30:18;126.70;;;67.75;;
51292;SDS011;37377;45.186;9.778;2022-12-29T05:32:45;127.25;;;67.72;;
51292;SDS011;37377;45.186;9.778;2022-12-29T05:35:12;132.80;;;68.88;;
51292;SDS011;37377;45.186;9.778;2022-12-29T05:37:40;131.10;;;68.68;;
51292;SDS011;37377;45.186;9.778;2022-12-29T05:40:07;125.32;;;66.85;;
51292;SDS011;37377;45.186;9.778;2022-12-29T05:42:38;127.85;;;66.43;;
51292;SDS011;37377;45.186;9.778;2022-12-29T05:45:30;124.05;;;67.20;;
51292;SDS011;37377;45.186;9.778;2022-12-29T05:48:21;136.05;;;69.95;;
51292;SDS011;37377;45.186;9.778;2022-12-29T05:51:23;121.38;;;63.63;;
51292;SDS011;37377;45.186;9.778;2022-12-29T05:53:53;126.85;;;67.90;;
51292;SDS011;37377;45.186;9.778;2022-12-29T05:56:21;127.97;;;69.00;;
51292;SDS011;37377;45.186;9.778;2022-12-29T05:58:55;121.82;;;67.80;;
51292;SDS011;37377;45.186;9.778;2022-12-29T06:01:23;128.48;;;66.68;;
51292;SDS011;37377;45.186;9.778;2022-12-29T06:03:54;128.73;;;66.80;;
51292;SDS011;37377;45.186;9.778;2022-12-29T06:06:21;132.70;;;69.50;;
51292;SDS011;37377;45.186;9.778;2022-12-29T06:08:48;128.82;;;70.72;;
51292;SDS011;37377;45.186;9.778;2022-12-29T06:11:15;129.50;;;69.63;;
51292;SDS011;37377;45.186;9.778;2022-12-29T06:13:52;130.95;;;69.28;;
51292;SDS011;37377;45.186;9.778;2022-12-29T06:16:19;127.00;;;70.45;;
51292;SDS011;37377;45.186;9.778;2022-12-29T06:18:48;129.93;;;69.53;;
51292;SDS011;37377;45.186;9.778;2022-12-29T06:21:16;129.00;;;69.28;;
51292;SDS011;37377;45.186;9.778;2022-12-29T06:23:43;118.45;;;65.72;;
51292;SDS011;37377;45.186;9.778;2022-12-29T06:26:10;124.68;;;67.97;;
51292;SDS011;37377;45.186;9.778;2022-12-29T06:28:37;127.03;;;68.40;;
51292;SDS011;37377;45.186;9.778;2022-12-29T06:31:04;130.48;;;70.10;;
51292;SDS011;37377;45.186;9.778;2022-12-29T06:33:31;125.82;;;66.53;;
51292;SDS011;37377;45.186;9.778;2022-12-29T06:35:58;124.63;;;69.20;;
51292;SDS011;37377;45.186;9.778;2022-12-29T06:38:25;121.50;;;67.82;;
51292;SDS011;37377;45.186;9.778;2022-12-29T06:40:53;130.27;;;68.53;;
51292;SDS011;37377;45.186;9.778;2022-12-29T06:43:42;132.40;;;69.78;;
51292;SDS011;37377;45.186;9.778;2022-12-29T06:46:21;125.63;;;67.55;;
51292;SDS011;37377;45.186;9.778;2022-12-29T06:48:48;118.43;;;66.72;;
51292;SDS011;37377;45.186;9.778;2022-12-29T06:51:16;123.53;;;65.60;;
51292;SDS011;37377;45.186;9.778;2022-12-29T06:53:43;122.97;;;67.13;;
51292;SDS011;37377;45.186;9.778;2022-12-29T06:56:10;119.53;;;66.00;;
51292;SDS011;37377;45.186;9.778;2022-12-29T06:58:37;134.98;;;69.75;;
51292;SDS011;37377;45.186;9.778;2022-12-29T07:01:05;124.10;;;68.85;;
51292;SDS011;37377;45.186;9.778;2022-12-29T07:03:32;129.60;;;70.93;;
51292;SDS011;37377;45.186;9.778;2022-12-29T07:05:59;128.68;;;69.20;;
51292;SDS011;37377;45.186;9.778;2022-12-29T07:08:26;127.28;;;70.03;;
51292;SDS011;37377;45.186;9.778;2022-12-29T07:10:53;128.85;;;71.32;;
51292;SDS011;37377;45.186;9.778;2022-12-29T07:13:23;141.88;;;73.65;;
51292;SDS011;37377;45.186;9.778;2022-12-29T07:16:06;139.13;;;72.72;;
51292;SDS011;37377;45.186;9.778;2022-12-29T07:18:36;132.60;;;72.45;;
51292;SDS011;37377;45.186;9.778;2022-12-29T07:21:08;133.10;;;71.45;;
51292;SDS011;37377;45.186;9.778;2022-12-29T07:23:35;128.05;;;69.88;;
51292;SDS011;37377;45.186;9.778;2022-12-29T07:26:03;127.90;;;71.68;;
51292;SDS011;37377;45.186;9.778;2022-12-29T07:28:31;123.50;;;67.90;;
51292;SDS011;37377;45.186;9.778;2022-12-29T07:30:58;124.93;;;67.45;;
51292;SDS011;37377;45.186;9.778;2022-12-29T07:33:31;124.70;;;67.95;;
51292;SDS011;37377;45.186;9.778;2022-12-29T07:36:02;128.63;;;68.38;;
51292;SDS011;37377;45.186;9.778;2022-12-29T07:38:29;120.35;;;66.88;;
51292;SDS011;37377;45.186;9.778;2022-12-29T07:40:57;122.07;;;67.82;;
51292;SDS011;37377;45.186;9.778;2022-12-29T07:43:28;130.40;;;69.95;;
51292;SDS011;37377;45.186;9.778;2022-12-29T07:46:30;123.65;;;67.78;;
51292;SDS011;37377;45.186;9.778;2022-12-29T07:49:16;130.73;;;69.22;;
51292;SDS011;37377;45.186;9.778;2022-12-29T07:51:43;133.10;;;70.70;;
51292;SDS011;37377;45.186;9.778;2022-12-29T07:54:10;120.03;;;67.88;;
51292;SDS011;37377;45.186;9.778;2022-12-29T07:56:39;127.38;;;68.63;;
51292;SDS011;37377;45.186;9.778;2022-12-29T07:59:06;133.63;;;71.45;;
51292;SDS011;37377;45.186;9.778;2022-12-29T08:01:32;126.45;;;68.22;;
51292;SDS011;37377;45.186;9.778;2022-12-29T08:04:00;118.43;;;67.40;;
51292;SDS011;37377;45.186;9.778;2022-12-29T08:06:27;126.85;;;69.65;;
51292;SDS011;37377;45.186;9.778;2022-12-29T08:08:58;132.25;;;70.35;;
51292;SDS011;37377;45.186;9.778;2022-12-29T08:11:39;132.15;;;68.43;;
51292;SDS011;37377;45.186;9.778;2022-12-29T08:14:06;127.13;;;68.93;;
51292;SDS011;37377;45.186;9.778;2022-12-29T08:16:33;125.55;;;68.07;;
51292;SDS011;37377;45.186;9.778;2022-12-29T08:19:01;132.45;;;68.50;;
51292;SDS011;37377;45.186;9.778;2022-12-29T08:21:28;124.75;;;68.88;;
51292;SDS011;37377;45.186;9.778;2022-12-29T08:23:55;118.50;;;65.05;;
51292;SDS011;37377;45.186;9.778;2022-12-29T08:26:22;125.30;;;67.68;;
51292;SDS011;37377;45.186;9.778;2022-12-29T08:28:51;125.50;;;68.18;;
51292;SDS011;37377;45.186;9.778;2022-12-29T08:31:18;124.30;;;67.95;;
51292;SDS011;37377;45.186;9.778;2022-12-29T08:33:45;125.88;;;68.78;;
51292;SDS011;37377;45.186;9.778;2022-12-29T08:36:12;117.60;;;66.18;;
51292;SDS011;37377;45.186;9.778;2022-12-29T08:38:39;120.20;;;65.75;;
51292;SDS011;37377;45.186;9.778;2022-12-29T08:41:06;123.53;;;66.28;;
51292;SDS011;37377;45.186;9.778;2022-12-29T08:43:33;117.93;;;66.18;;
51292;SDS011;37377;45.186;9.778;2022-12-29T08:46:00;120.45;;;67.93;;
51292;SDS011;37377;45.186;9.778;2022-12-29T08:48:27;119.78;;;68.00;;
51292;SDS011;37377;45.186;9.778;2022-12-29T08:50:54;117.13;;;65.22;;
51292;SDS011;37377;45.186;9.778;2022-12-29T08:53:20;124.68;;;67.38;;
51292;SDS011;37377;45.186;9.778;2022-12-29T08:55:53;120.38;;;66.93;;
51292;SDS011;37377;45.186;9.778;2022-12-29T08:58:30;125.47;;;66.63;;
51292;SDS011;37377;45.186;9.778;2022-12-29T09:00:57;137.20;;;71.00;;
51292;SDS011;37377;45.186;9.778;2022-12-29T09:03:25;119.78;;;66.22;;
51292;SDS011;37377;45.186;9.778;2022-12-29T09:06:12;112.90;;;64.03;;
51292;SDS011;37377;45.186;9.778;2022-12-29T09:08:39;120.32;;;64.97;;
51292;SDS011;37377;45.186;9.778;2022-12-29T09:11:12;120.57;;;64.78;;
51292;SDS011;37377;45.186;9.778;2022-12-29T09:13:40;120.85;;;67.85;;
51292;SDS011;37377;45.186;9.778;2022-12-29T09:16:07;120.60;;;66.03;;
51292;SDS011;37377;45.186;9.778;2022-12-29T09:18:35;117.82;;;66.72;;
51292;SDS011;37377;45.186;9.778;2022-12-29T09:21:03;124.65;;;72.47;;
51292;SDS011;37377;45.186;9.778;2022-12-29T09:23:31;120.50;;;68.63;;
51292;SDS011;37377;45.186;9.778;2022-12-29T09:25:58;120.38;;;71.72;;
51292;SDS011;37377;45.186;9.778;2022-12-29T09:28:26;118.63;;;68.82;;
51292;SDS011;37377;45.186;9.778;2022-12-29T09:30:53;129.98;;;72.10;;
51292;SDS011;37377;45.186;9.778;2022-12-29T09:33:20;123.88;;;71.05;;
51292;SDS011;37377;45.186;9.778;2022-12-29T09:35:55;123.15;;;71.32;;
51292;SDS011;37377;45.186;9.778;2022-12-29T09:38:22;129.68;;;70.35;;
51292;SDS011;37377;45.186;9.778;2022-12-29T09:40:53;126.78;;;75.60;;
51292;SDS011;37377;45.186;9.778;2022-12-29T09:45:53;120.63;;;72.40;;
51292;SDS011;37377;45.186;9.778;2022-12-29T09:48:23;123.97;;;70.32;;
51292;SDS011;37377;45.186;9.778;2022-12-29T09:50:53;122.20;;;69.80;;
51292;SDS011;37377;45.186;9.778;2022-12-29T09:54:07;118.95;;;67.57;;
51292;SDS011;37377;45.186;9.778;2022-12-29T09:56:15;118.50;;;72.15;;
51292;SDS011;37377;45.186;9.778;2022-12-29T10:01:33;119.20;;;70.20;;
51292;SDS011;37377;45.186;9.778;2022-12-29T10:04:02;121.53;;;70.05;;
51292;SDS011;37377;45.186;9.778;2022-12-29T10:06:41;115.68;;;71.38;;
51292;SDS011;37377;45.186;9.778;2022-12-29T10:20:02;125.85;;;74.15;;
51292;SDS011;37377;45.186;9.778;2022-12-29T10:25:00;122.97;;;70.35;;
51292;SDS011;37377;45.186;9.778;2022-12-29T10:27:35;126.75;;;69.25;;
51292;SDS011;37377;45.186;9.778;2022-12-29T10:30:03;127.65;;;72.93;;
51292;SDS011;37377;45.186;9.778;2022-12-29T10:35:10;118.53;;;68.95;;
51292;SDS011;37377;45.186;9.778;2022-12-29T10:40:13;116.47;;;68.10;;
51292;SDS011;37377;45.186;9.778;2022-12-29T10:42:41;117.07;;;69.72;;
51292;SDS011;37377;45.186;9.778;2022-12-29T10:45:13;107.93;;;65.43;;
51292;SDS011;37377;45.186;9.778;2022-12-29T10:48:19;110.70;;;65.28;;
51292;SDS011;37377;45.186;9.778;2022-12-29T10:50:34;109.97;;;65.65;;
51292;SDS011;37377;45.186;9.778;2022-12-29T10:53:02;101.03;;;61.20;;
51292;SDS011;37377;45.186;9.778;2022-12-29T10:55:35;108.93;;;61.65;;
51292;SDS011;37377;45.186;9.778;2022-12-29T10:58:04;102.28;;;60.78;;
51292;SDS011;37377;45.186;9.778;2022-12-29T11:00:32;98.07;;;62.00;;
51292;SDS011;37377;45.186;9.778;2022-12-29T11:05:33;103.20;;;60.45;;
51292;SDS011;37377;45.186;9.778;2022-12-29T11:08:03;97.68;;;59.42;;
51292;SDS011;37377;45.186;9.778;2022-12-29T11:13:11;98.55;;;60.30;;
51292;SDS011;37377;45.186;9.778;2022-12-29T11:15:39;96.18;;;59.38;;
51292;SDS011;37377;45.186;9.778;2022-12-29T11:18:17;94.63;;;57.85;;
51292;SDS011;37377;45.186;9.778;2022-12-29T11:20:44;102.40;;;61.83;;
51292;SDS011;37377;45.186;9.778;2022-12-29T11:23:25;99.43;;;59.30;;
51292;SDS011;37377;45.186;9.778;2022-12-29T11:28:32;98.40;;;61.40;;
51292;SDS011;37377;45.186;9.778;2022-12-29T11:31:14;101.25;;;60.38;;
51292;SDS011;37377;45.186;9.778;2022-12-29T11:33:51;101.30;;;60.80;;
51292;SDS011;37377;45.186;9.778;2022-12-29T11:36:19;97.72;;;60.75;;
51292;SDS011;37377;45.186;9.778;2022-12-29T11:41:18;106.38;;;64.43;;
51292;SDS011;37377;45.186;9.778;2022-12-29T11:43:46;108.88;;;62.85;;
51292;SDS011;37377;45.186;9.778;2022-12-29T11:46:14;111.53;;;64.75;;
51292;SDS011;37377;45.186;9.778;2022-12-29T11:48:43;107.80;;;64.97;;
51292;SDS011;37377;45.186;9.778;2022-12-29T11:51:10;112.57;;;65.93;;
51292;SDS011;37377;45.186;9.778;2022-12-29T11:56:06;124.22;;;68.40;;
51292;SDS011;37377;45.186;9.778;2022-12-29T11:58:35;118.13;;;68.97;;
51292;SDS011;37377;45.186;9.778;2022-12-29T12:03:30;116.57;;;68.40;;
51292;SDS011;37377;45.186;9.778;2022-12-29T12:05:59;110.25;;;65.15;;
51292;SDS011;37377;45.186;9.778;2022-12-29T12:08:35;119.35;;;67.40;;
51292;SDS011;37377;45.186;9.778;2022-12-29T12:11:09;108.88;;;63.38;;
51292;SDS011;37377;45.186;9.778;2022-12-29T12:13:50;115.75;;;69.63;;
51292;SDS011;37377;45.186;9.778;2022-12-29T12:16:24;112.72;;;64.63;;
51292;SDS011;37377;45.186;9.778;2022-12-29T12:19:58;106.97;;;63.63;;
51292;SDS011;37377;45.186;9.778;2022-12-29T12:21:54;103.70;;;62.67;;
51292;SDS011;37377;45.186;9.778;2022-12-29T12:24:46;103.93;;;60.70;;
51292;SDS011;37377;45.186;9.778;2022-12-29T12:27:23;99.18;;;59.70;;
51292;SDS011;37377;45.186;9.778;2022-12-29T12:32:41;99.10;;;57.92;;
51292;SDS011;37377;45.186;9.778;2022-12-29T12:35:18;99.55;;;59.22;;
51292;SDS011;37377;45.186;9.778;2022-12-29T12:43:05;94.82;;;57.25;;
51292;SDS011;37377;45.186;9.778;2022-12-29T12:45:55;97.85;;;58.25;;
51292;SDS011;37377;45.186;9.778;2022-12-29T12:48:34;94.95;;;55.30;;
51292;SDS011;37377;45.186;9.778;2022-12-29T12:54:20;78.82;;;49.63;;
51292;SDS011;37377;45.186;9.778;2022-12-29T12:56:44;87.45;;;55.28;;
51292;SDS011;37377;45.186;9.778;2022-12-29T13:01:45;79.68;;;52.17;;
51292;SDS011;37377;45.186;9.778;2022-12-29T13:07:17;76.15;;;48.80;;
51292;SDS011;37377;45.186;9.778;2022-12-29T13:10:01;75.22;;;47.63;;
51292;SDS011;37377;45.186;9.778;2022-12-29T13:15:02;79.03;;;49.25;;
51292;SDS011;37377;45.186;9.778;2022-12-29T13:17:37;89.07;;;53.20;;
51292;SDS011;37377;45.186;9.778;2022-12-29T13:20:15;95.10;;;52.75;;
51292;SDS011;37377;45.186;9.778;2022-12-29T13:27:56;95.80;;;51.58;;
51292;SDS011;37377;45.186;9.778;2022-12-29T13:30:45;102.35;;;59.20;;
51292;SDS011;37377;45.186;9.778;2022-12-29T13:33:24;97.35;;;52.65;;
51292;SDS011;37377;45.186;9.778;2022-12-29T13:41:00;120.38;;;54.00;;
51292;SDS011;37377;45.186;9.778;2022-12-29T13:43:32;67.70;;;42.17;;
51292;SDS011;37377;45.186;9.778;2022-12-29T13:46:03;64.22;;;40.95;;
51292;SDS011;37377;45.186;9.778;2022-12-29T13:48:35;70.32;;;43.55;;
51292;SDS011;37377;45.186;9.778;2022-12-29T13:51:03;73.78;;;44.85;;
51292;SDS011;37377;45.186;9.778;2022-12-29T13:53:34;98.38;;;52.78;;
51292;SDS011;37377;45.186;9.778;2022-12-29T14:01:04;66.40;;;42.83;;
51292;SDS011;37377;45.186;9.778;2022-12-29T14:08:54;67.75;;;43.53;;
51292;SDS011;37377;45.186;9.778;2022-12-29T14:11:28;63.70;;;42.83;;
51292;SDS011;37377;45.186;9.778;2022-12-29T14:13:56;68.72;;;43.42;;
51292;SDS011;37377;45.186;9.778;2022-12-29T14:16:28;65.93;;;40.90;;
51292;SDS011;37377;45.186;9.778;2022-12-29T14:18:56;67.70;;;40.83;;
51292;SDS011;37377;45.186;9.778;2022-12-29T14:21:31;67.80;;;41.35;;
51292;SDS011;37377;45.186;9.778;2022-12-29T14:26:46;70.68;;;45.63;;
51292;SDS011;37377;45.186;9.778;2022-12-29T14:31:55;67.45;;;42.40;;
51292;SDS011;37377;45.186;9.778;2022-12-29T14:42:19;66.32;;;42.72;;
51292;SDS011;37377;45.186;9.778;2022-12-29T14:44:53;68.57;;;43.47;;
51292;SDS011;37377;45.186;9.778;2022-12-29T14:47:44;71.80;;;43.75;;
51292;SDS011;37377;45.186;9.778;2022-12-29T14:57:44;70.72;;;44.10;;
51292;SDS011;37377;45.186;9.778;2022-12-29T15:00:15;70.70;;;45.47;;
51292;SDS011;37377;45.186;9.778;2022-12-29T15:02:48;80.80;;;46.13;;
51292;SDS011;37377;45.186;9.778;2022-12-29T15:05:27;73.45;;;45.05;;
51292;SDS011;37377;45.186;9.778;2022-12-29T15:07:56;69.32;;;45.78;;
51292;SDS011;37377;45.186;9.778;2022-12-29T15:10:24;70.88;;;44.75;;
51292;SDS011;37377;45.186;9.778;2022-12-29T15:12:53;73.60;;;44.95;;
51292;SDS011;37377;45.186;9.778;2022-12-29T15:15:24;71.60;;;45.25;;
51292;SDS011;37377;45.186;9.778;2022-12-29T15:17:52;70.00;;;45.13;;
51292;SDS011;37377;45.186;9.778;2022-12-29T15:20:23;70.30;;;44.47;;
51292;SDS011;37377;45.186;9.778;2022-12-29T15:22:55;81.05;;;48.10;;
51292;SDS011;37377;45.186;9.778;2022-12-29T15:25:22;78.28;;;49.58;;
51292;SDS011;37377;45.186;9.778;2022-12-29T15:27:52;73.88;;;47.33;;
51292;SDS011;37377;45.186;9.778;2022-12-29T15:30:20;78.38;;;48.95;;
51292;SDS011;37377;45.186;9.778;2022-12-29T15:32:47;78.10;;;49.22;;
51292;SDS011;37377;45.186;9.778;2022-12-29T15:35:28;79.30;;;48.95;;
51292;SDS011;37377;45.186;9.778;2022-12-29T15:37:56;77.78;;;49.30;;
51292;SDS011;37377;45.186;9.778;2022-12-29T15:40:24;73.22;;;47.42;;
51292;SDS011;37377;45.186;9.778;2022-12-29T15:43:05;76.00;;;49.60;;
51292;SDS011;37377;45.186;9.778;2022-12-29T15:45:35;79.82;;;49.53;;
51292;SDS011;37377;45.186;9.778;2022-12-29T15:48:03;81.57;;;54.30;;
51292;SDS011;37377;45.186;9.778;2022-12-29T15:50:34;76.05;;;49.50;;
51292;SDS011;37377;45.186;9.778;2022-12-29T15:53:01;80.57;;;50.53;;
51292;SDS011;37377;45.186;9.778;2022-12-29T15:55:30;80.97;;;49.80;;
51292;SDS011;37377;45.186;9.778;2022-12-29T15:57:58;85.50;;;52.38;;
51292;SDS011;37377;45.186;9.778;2022-12-29T16:00:28;78.28;;;49.20;;
51292;SDS011;37377;45.186;9.778;2022-12-29T16:02:56;82.20;;;51.00;;
51292;SDS011;37377;45.186;9.778;2022-12-29T16:05:30;84.82;;;50.58;;
51292;SDS011;37377;45.186;9.778;2022-12-29T16:07:58;82.70;;;51.47;;
51292;SDS011;37377;45.186;9.778;2022-12-29T16:10:27;82.78;;;51.63;;
51292;SDS011;37377;45.186;9.778;2022-12-29T16:15:55;99.60;;;63.70;;
51292;SDS011;37377;45.186;9.778;2022-12-29T16:18:30;101.85;;;66.40;;
51292;SDS011;37377;45.186;9.778;2022-12-29T16:20:59;98.28;;;62.45;;
51292;SDS011;37377;45.186;9.778;2022-12-29T16:23:29;89.78;;;59.95;;
51292;SDS011;37377;45.186;9.778;2022-12-29T16:25:56;85.53;;;52.63;;
51292;SDS011;37377;45.186;9.778;2022-12-29T16:28:25;73.95;;;50.22;;
51292;SDS011;37377;45.186;9.778;2022-12-29T16:30:57;77.38;;;50.60;;
51292;SDS011;37377;45.186;9.778;2022-12-29T16:36:00;80.32;;;50.85;;
51292;SDS011;37377;45.186;9.778;2022-12-29T16:38:32;78.28;;;50.58;;
51292;SDS011;37377;45.186;9.778;2022-12-29T16:41:00;87.75;;;54.42;;
51292;SDS011;37377;45.186;9.778;2022-12-29T16:43:33;80.45;;;51.05;;
51292;SDS011;37377;45.186;9.778;2022-12-29T16:48:28;84.65;;;51.67;;
51292;SDS011;37377;45.186;9.778;2022-12-29T16:51:00;80.47;;;52.42;;
51292;SDS011;37377;45.186;9.778;2022-12-29T16:53:28;86.07;;;51.38;;
51292;SDS011;37377;45.186;9.778;2022-12-29T16:55:56;78.57;;;50.88;;
51292;SDS011;37377;45.186;9.778;2022-12-29T16:58:25;80.22;;;49.60;;
51292;SDS011;37377;45.186;9.778;2022-12-29T17:00:54;81.07;;;50.33;;
51292;SDS011;37377;45.186;9.778;2022-12-29T17:03:23;81.45;;;50.88;;
51292;SDS011;37377;45.186;9.778;2022-12-29T17:05:54;85.18;;;52.67;;